Time,TemperatureF,DewpointF,PressureIn,WindDirection,WindDirectionDegrees,WindSpeedMPH,WindSpeedGustMPH,Humidity,HourlyPrecipIn,Conditions,Clouds,dailyrainin,SolarRadiationWatts/m^2,SoftwareType,DateUTC
2013-11-14 00:02:00,36.0,30.0,-100.00,SSW,209,4.0,9.0,78,0.00,,,0.00,0.000000,,2013-11-14 06:02:00,
2013-11-14 00:22:00,36.0,30.0,-100.00,SSW,209,4.0,9.0,78,0.00,,,0.00,0.000000,,2013-11-14 06:22:00,
2013-11-14 00:32:00,36.0,30.0,-100.00,SSW,209,4.0,9.0,78,0.00,,,0.00,0.000000,,2013-11-14 06:32:00,
2013-11-14 00:42:00,36.0,30.0,-100.00,SSW,209,4.0,9.0,78,0.00,,,0.00,0.000000,,2013-11-14 06:42:00,
2013-11-14 00:52:00,36.0,30.0,-100.00,SSW,209,4.0,9.0,78,0.00,,,0.00,0.000000,,2013-11-14 06:52:00,
2013-11-14 01:42:00,34.0,29.0,-100.00,SSW,203,2.0,7.0,83,0.00,,,0.00,0.000000,,2013-11-14 07:42:00,
2013-11-14 01:53:00,34.0,29.0,-100.00,SSW,203,2.0,7.0,83,0.00,,,0.00,0.000000,,2013-11-14 07:53:00,
2013-11-14 02:01:00,34.0,29.0,-100.00,SSW,203,2.0,7.0,83,0.00,,,0.00,0.000000,,2013-11-14 08:01:00,
2013-11-14 02:02:00,31.0,28.0,-100.00,East,101,0.0,3.0,90,0.00,,,0.00,0.000000,,2013-11-14 08:02:00,
2013-11-14 02:22:00,31.0,28.0,-100.00,East,101,0.0,3.0,90,0.00,,,0.00,0.000000,,2013-11-14 08:22:00,
2013-11-14 02:32:00,31.0,28.0,-100.00,East,101,0.0,3.0,90,0.00,,,0.00,0.000000,,2013-11-14 08:32:00,
2013-11-14 02:42:00,31.0,28.0,-100.00,East,101,0.0,3.0,90,0.00,,,0.00,0.000000,,2013-11-14 08:42:00,
2013-11-14 02:53:00,31.0,28.0,-100.00,East,101,0.0,3.0,90,0.00,,,0.00,0.000000,,2013-11-14 08:53:00,
2013-11-14 03:02:00,33.0,30.0,-100.00,SW,220,1.0,2.0,87,0.00,,,0.00,0.000000,,2013-11-14 09:02:00,
2013-11-14 03:22:00,33.0,30.0,-100.00,SW,220,1.0,2.0,87,0.00,,,0.00,0.000000,,2013-11-14 09:22:00,
2013-11-14 03:33:00,33.0,30.0,-100.00,SW,220,1.0,2.0,87,0.00,,,0.00,0.000000,,2013-11-14 09:33:00,
2013-11-14 03:43:00,33.0,30.0,-100.00,SW,220,1.0,2.0,87,0.00,,,0.00,0.000000,,2013-11-14 09:43:00,
2013-11-14 03:53:00,33.0,30.0,-100.00,SW,220,1.0,2.0,87,0.00,,,0.00,0.000000,,2013-11-14 09:53:00,
2013-11-14 04:02:00,33.0,29.0,-100.00,SSE,159,2.0,4.0,84,0.00,,,0.00,0.000000,,2013-11-14 10:02:00,
2013-11-14 04:43:00,33.0,29.0,-100.00,SSE,159,2.0,4.0,84,0.00,,,0.00,0.000000,,2013-11-14 10:43:00,
2013-11-14 04:52:00,33.0,29.0,-100.00,SSE,159,2.0,4.0,84,0.00,,,0.00,0.000000,,2013-11-14 10:52:00,
2013-11-14 05:02:00,34.0,29.0,-100.00,SSE,148,1.0,5.0,83,0.00,,,0.00,0.000000,,2013-11-14 11:02:00,
2013-11-14 05:42:00,34.0,29.0,-100.00,SSE,148,1.0,5.0,83,0.00,,,0.00,0.000000,,2013-11-14 11:42:00,
2013-11-14 05:52:00,34.0,29.0,-100.00,SSE,148,1.0,5.0,83,0.00,,,0.00,0.000000,,2013-11-14 11:52:00,
2013-11-14 06:02:00,33.0,29.0,-100.00,SSE,156,2.0,4.0,84,0.00,,,0.00,0.000000,,2013-11-14 12:02:00,
2013-11-14 06:22:00,33.0,29.0,-100.00,SSE,156,2.0,4.0,84,0.00,,,0.00,0.000000,,2013-11-14 12:22:00,
2013-11-14 06:32:00,33.0,29.0,-100.00,SSE,156,2.0,4.0,84,0.00,,,0.00,0.000000,,2013-11-14 12:32:00,
2013-11-14 06:42:00,33.0,29.0,-100.00,SSE,156,2.0,4.0,84,0.00,,,0.00,0.000000,,2013-11-14 12:42:00,
2013-11-14 06:52:00,33.0,29.0,-100.00,SSE,156,2.0,4.0,84,0.00,,,0.00,0.000000,,2013-11-14 12:52:00,
2013-11-14 07:02:00,33.0,29.0,-100.00,SSW,208,2.0,6.0,84,0.00,,,0.00,0.000000,,2013-11-14 13:02:00,
2013-11-14 07:42:00,33.0,29.0,-100.00,SSW,208,2.0,6.0,84,0.00,,,0.00,0.000000,,2013-11-14 13:42:00,
2013-11-14 07:52:00,33.0,29.0,-100.00,SSW,208,2.0,6.0,84,0.00,,,0.00,0.000000,,2013-11-14 13:52:00,
2013-11-14 08:02:00,33.0,29.0,-100.00,South,190,3.0,7.0,85,0.00,,,0.00,22.000000,,2013-11-14 14:02:00,
2013-11-14 08:42:00,33.0,29.0,-100.00,South,190,3.0,7.0,85,0.00,,,0.00,22.000000,,2013-11-14 14:42:00,
2013-11-14 08:52:00,33.0,29.0,-100.00,South,190,3.0,7.0,85,0.00,,,0.00,22.000000,,2013-11-14 14:52:00,
2013-11-14 09:02:00,34.0,29.0,-100.00,SSW,206,3.0,8.0,81,0.00,,,0.00,84.000000,,2013-11-14 15:02:00,
2013-11-14 09:22:00,34.0,29.0,-100.00,SSW,206,3.0,8.0,81,0.00,,,0.00,84.000000,,2013-11-14 15:22:00,
2013-11-14 09:33:00,34.0,29.0,-100.00,SSW,206,3.0,8.0,81,0.00,,,0.00,84.000000,,2013-11-14 15:33:00,
2013-11-14 09:43:00,34.0,29.0,-100.00,SSW,206,3.0,8.0,81,0.00,,,0.00,84.000000,,2013-11-14 15:43:00,
2013-11-14 09:53:00,34.0,29.0,-100.00,SSW,206,3.0,8.0,81,0.00,,,0.00,84.000000,,2013-11-14 15:53:00,
2013-11-14 10:02:00,37.0,30.0,-100.00,SW,231,3.0,7.0,75,0.00,,,0.00,182.000000,,2013-11-14 16:02:00,
2013-11-14 10:23:00,37.0,30.0,-100.00,SW,231,3.0,7.0,75,0.00,,,0.00,182.000000,,2013-11-14 16:23:00,
2013-11-14 10:33:00,37.0,30.0,-100.00,SW,231,3.0,7.0,75,0.00,,,0.00,182.000000,,2013-11-14 16:33:00,
2013-11-14 10:42:00,37.0,30.0,-100.00,SW,231,3.0,7.0,75,0.00,,,0.00,182.000000,,2013-11-14 16:42:00,
2013-11-14 10:52:00,37.0,30.0,-100.00,SW,231,3.0,7.0,75,0.00,,,0.00,182.000000,,2013-11-14 16:52:00,
2013-11-14 11:02:00,38.0,30.0,-100.00,SW,220,3.0,8.0,72,0.00,,,0.00,149.000000,,2013-11-14 17:02:00,
2013-11-14 11:23:00,38.0,30.0,-100.00,SW,220,3.0,8.0,72,0.00,,,0.00,149.000000,,2013-11-14 17:23:00,
2013-11-14 11:33:00,38.0,30.0,-100.00,SW,220,3.0,8.0,72,0.00,,,0.00,149.000000,,2013-11-14 17:33:00,
2013-11-14 11:42:00,38.0,30.0,-100.00,SW,220,3.0,8.0,72,0.00,,,0.00,149.000000,,2013-11-14 17:42:00,
2013-11-14 11:52:00,38.0,30.0,-100.00,SW,220,3.0,8.0,72,0.00,,,0.00,149.000000,,2013-11-14 17:52:00,
2013-11-14 12:22:00,39.0,30.0,-100.00,South,181,4.0,8.0,71,0.00,,,0.00,135.000000,,2013-11-14 18:22:00,
2013-11-14 12:33:00,39.0,30.0,-100.00,South,181,4.0,8.0,71,0.00,,,0.00,135.000000,,2013-11-14 18:33:00,
2013-11-14 12:42:00,39.0,30.0,-100.00,South,181,4.0,8.0,71,0.00,,,0.00,135.000000,,2013-11-14 18:42:00,
2013-11-14 12:52:00,39.0,30.0,-100.00,South,181,4.0,8.0,71,0.00,,,0.00,135.000000,,2013-11-14 18:52:00,
2013-11-14 13:01:00,39.0,30.0,-100.00,South,181,4.0,8.0,71,0.00,,,0.00,135.000000,,2013-11-14 19:01:00,
2013-11-14 13:02:00,40.0,31.0,-100.00,SSW,210,4.0,9.0,69,0.00,,,0.00,177.000000,,2013-11-14 19:02:00,
2013-11-14 13:42:00,40.0,31.0,-100.00,SSW,210,4.0,9.0,69,0.00,,,0.00,177.000000,,2013-11-14 19:42:00,
2013-11-14 13:52:00,40.0,31.0,-100.00,SSW,210,4.0,9.0,69,0.00,,,0.00,177.000000,,2013-11-14 19:52:00,
2013-11-14 14:02:00,42.0,32.0,-100.00,South,186,3.0,8.0,67,0.00,,,0.00,147.000000,,2013-11-14 20:02:00,
2013-11-14 14:22:00,42.0,32.0,-100.00,South,186,3.0,8.0,67,0.00,,,0.00,147.000000,,2013-11-14 20:22:00,
2013-11-14 14:32:00,42.0,32.0,-100.00,South,186,3.0,8.0,67,0.00,,,0.00,147.000000,,2013-11-14 20:32:00,
2013-11-14 14:42:00,42.0,32.0,-100.00,South,186,3.0,8.0,67,0.00,,,0.00,147.000000,,2013-11-14 20:42:00,
2013-11-14 14:52:00,42.0,32.0,-100.00,South,186,3.0,8.0,67,0.00,,,0.00,147.000000,,2013-11-14 20:52:00,
2013-11-14 15:02:00,45.0,32.0,-100.00,SSW,193,3.0,8.0,59,0.00,,,0.00,268.000000,,2013-11-14 21:02:00,
2013-11-14 15:22:00,45.0,32.0,-100.00,SSW,193,3.0,8.0,59,0.00,,,0.00,268.000000,,2013-11-14 21:22:00,
2013-11-14 15:33:00,45.0,32.0,-100.00,SSW,193,3.0,8.0,59,0.00,,,0.00,268.000000,,2013-11-14 21:33:00,
2013-11-14 15:43:00,45.0,32.0,-100.00,SSW,193,3.0,8.0,59,0.00,,,0.00,268.000000,,2013-11-14 21:43:00,
2013-11-14 15:53:00,45.0,32.0,-100.00,SSW,193,3.0,8.0,59,0.00,,,0.00,268.000000,,2013-11-14 21:53:00,
2013-11-14 16:02:00,42.0,31.0,-100.00,SSE,161,4.0,7.0,64,0.00,,,0.00,107.000000,,2013-11-14 22:02:00,
2013-11-14 16:23:00,42.0,31.0,-100.00,SSE,161,4.0,7.0,64,0.00,,,0.00,107.000000,,2013-11-14 22:23:00,
2013-11-14 16:33:00,42.0,31.0,-100.00,SSE,161,4.0,7.0,64,0.00,,,0.00,107.000000,,2013-11-14 22:33:00,
2013-11-14 16:43:00,42.0,31.0,-100.00,SSE,161,4.0,7.0,64,0.00,,,0.00,107.000000,,2013-11-14 22:43:00,
2013-11-14 16:53:00,42.0,31.0,-100.00,SSE,161,4.0,7.0,64,0.00,,,0.00,107.000000,,2013-11-14 22:53:00,
2013-11-14 17:02:00,34.0,28.0,-100.00,SE,134,1.0,6.0,80,0.00,,,0.00,8.000000,,2013-11-14 23:02:00,
2013-11-14 17:22:00,34.0,28.0,-100.00,SE,134,1.0,6.0,80,0.00,,,0.00,8.000000,,2013-11-14 23:22:00,
2013-11-14 17:33:00,34.0,28.0,-100.00,SE,134,1.0,6.0,80,0.00,,,0.00,8.000000,,2013-11-14 23:33:00,
2013-11-14 17:43:00,34.0,28.0,-100.00,SE,134,1.0,6.0,80,0.00,,,0.00,8.000000,,2013-11-14 23:43:00,
2013-11-14 17:52:00,34.0,28.0,-100.00,SE,134,1.0,6.0,80,0.00,,,0.00,8.000000,,2013-11-14 23:52:00,
2013-11-14 18:22:00,34.0,29.0,-100.00,SSE,160,3.0,6.0,81,0.00,,,0.00,0.000000,,2013-11-15 00:22:00,
2013-11-14 18:32:00,34.0,29.0,-100.00,SSE,160,3.0,6.0,81,0.00,,,0.00,0.000000,,2013-11-15 00:32:00,
2013-11-14 18:42:00,34.0,29.0,-100.00,SSE,160,3.0,6.0,81,0.00,,,0.00,0.000000,,2013-11-15 00:42:00,
2013-11-14 18:52:00,34.0,29.0,-100.00,SSE,160,3.0,6.0,81,0.00,,,0.00,0.000000,,2013-11-15 00:52:00,
2013-11-14 19:01:00,34.0,29.0,-100.00,SSE,160,3.0,6.0,81,0.00,,,0.00,0.000000,,2013-11-15 01:01:00,
2013-11-14 19:02:00,29.0,27.0,-100.00,SE,139,2.0,4.0,92,0.00,,,0.00,0.000000,,2013-11-15 01:02:00,
2013-11-14 19:42:00,29.0,27.0,-100.00,SE,139,2.0,4.0,92,0.00,,,0.00,0.000000,,2013-11-15 01:42:00,
2013-11-14 19:52:00,29.0,27.0,-100.00,SE,139,2.0,4.0,92,0.00,,,0.00,0.000000,,2013-11-15 01:52:00,
2013-11-14 20:02:00,33.0,29.0,-100.00,SSE,148,3.0,5.0,84,0.00,,,0.00,0.000000,,2013-11-15 02:02:00,
2013-11-14 20:42:00,33.0,29.0,-100.00,SSE,148,3.0,5.0,84,0.00,,,0.00,0.000000,,2013-11-15 02:42:00,
2013-11-14 20:52:00,33.0,29.0,-100.00,SSE,148,3.0,5.0,84,0.00,,,0.00,0.000000,,2013-11-15 02:52:00,
2013-11-14 21:02:00,33.0,29.0,-100.00,SE,144,2.0,5.0,84,0.00,,,0.00,0.000000,,2013-11-15 03:02:00,
2013-11-14 21:44:00,33.0,29.0,-100.00,SE,144,2.0,5.0,84,0.00,,,0.00,0.000000,,2013-11-15 03:44:00,
2013-11-14 21:54:00,33.0,29.0,-100.00,SE,144,2.0,5.0,84,0.00,,,0.00,0.000000,,2013-11-15 03:54:00,
2013-11-14 22:02:00,29.0,27.0,-100.00,NE,50,0.0,4.0,91,0.00,,,0.00,0.000000,,2013-11-15 04:02:00,
2013-11-14 22:43:00,29.0,27.0,-100.00,NE,50,0.0,4.0,91,0.00,,,0.00,0.000000,,2013-11-15 04:43:00,
2013-11-14 22:53:00,29.0,27.0,-100.00,NE,50,0.0,4.0,91,0.00,,,0.00,0.000000,,2013-11-15 04:53:00,
2013-11-14 23:02:00,27.0,26.0,-100.00,WSW,250,0.0,3.0,95,0.00,,,0.00,0.000000,,2013-11-15 05:02:00,
2013-11-14 23:44:00,27.0,26.0,-100.00,WSW,250,0.0,3.0,95,0.00,,,0.00,0.000000,,2013-11-15 05:44:00,
2013-11-14 23:53:00,27.0,26.0,-100.00,WSW,250,0.0,3.0,95,0.00,,,0.00,0.000000,,2013-11-15 05:53:00,